Flight Track Log - Related Links

Times and Time Zones

All times are in EDT time to prevent confusion due to time zone crossing. See the XA-PBT flight status page for this flight to view local times or setup timezone preferences in your user account.

Time Position Orientation Groundspeed Altitude Reporting Facility
EDT Latitude Longitude Course Direction KTS MPH feet Rate Location/Type
Sun 06:12:22 PM 29.5225 -98.4617 126° Southeast 172 198 1,700  Level Houston Center
Sun 06:12:40 PM 29.5150 -98.4497 126° Southeast 192 221 2,500 3,761 Climbing Houston Center
Sun 06:13:29 PM 29.4822 -98.4111 134° Southeast 201 231 5,900 3,360 Climbing Houston Center
Sun 06:14:45 PM 29.4183 -98.4378 200° South 221 254 9,500 2,826 Climbing Houston Center
Sun 06:15:47 PM 29.3475 -98.4894 212° Southwest 278 320 12,400 2,565 Climbing Houston Center
Sun 06:16:49 PM 29.2717 -98.5367 209° Southwest 308 354 14,800 2,419 Climbing Houston Center
Sun 06:17:51 PM 29.1842 -98.5894 208° Southwest 329 379 17,400 2,371 Climbing Houston Center
Sun 06:18:53 PM 29.1003 -98.6381 207° Southwest 337 388 19,700 1,984 Climbing Houston Center
Sun 06:19:55 PM 29.0017 -98.6861 203° Southwest 360 414 21,500 1,742 Climbing Houston Center
Sun 06:20:57 PM 28.9025 -98.7272 200° South 379 436 23,300 1,728 Climbing Houston Center
Sun 06:22:00 PM 28.7919 -98.7711 199° South 398 458 25,100 1,488 Climbing Houston Center
Sun 06:23:02 PM 28.6869 -98.8150 200° South 403 464 26,400 1,161 Climbing Houston Center
Sun 06:24:04 PM 28.5944 -98.8642 205° Southwest 412 474 27,500 774 Climbing Houston Center
Sun 06:25:06 PM 28.4875 -98.9181 204° Southwest 418 481 28,000 242 Climbing Houston Center
Sun 06:26:08 PM 28.3542 -98.9850 204° Southwest 434 499 28,000  Level Houston Center
Sun 06:27:10 PM 28.2414 -99.0414 204° Southwest 442 509 28,000  Level Houston Center
Sun 06:28:12 PM 28.1294 -99.0972 204° Southwest 442 509 28,000  Level Houston Center
Sun 06:29:14 PM 28.0156 -99.1531 203° Southwest 445 512 28,000  Level Houston Center
Sun 06:30:16 PM 27.9033 -99.2092 204° Southwest 445 512 28,000  Level Houston Center
Sun 06:31:18 PM 27.7678 -99.2764 204° Southwest 446 513 28,000  Level Houston Center
Sun 06:32:20 PM 27.6553 -99.3311 203° Southwest 445 512 28,000  Level Houston Center
Sun 06:33:23 PM 27.5431 -99.3906 205° Southwest 449 517 28,000  Level Houston Center
Sun 06:34:25 PM 27.4556 -99.4797 222° Southwest 428 493 28,000  Level Houston Center
Sun 06:35:27 PM 27.3361 -99.5736 215° Southwest 436 502 28,000  Level Houston Center
Sun 06:36:29 PM 27.2242 -99.6339 206° Southwest 445 512 28,000 -435 Level Houston Center
Sun 06:37:31 PM 27.1039 -99.6744 197° South 452 520 27,100 -871 Descending Houston Center
Sun 06:39:00 PM 26.9751 -99.7049 197° South  Level FlightAware Approximate
Sun 06:46:00 PM 26.3782 -99.9016 195° South  Level FlightAware Approximate
Sun 06:47:00 PM 26.2923 -99.9273 195° South  Level FlightAware Approximate
Sun 06:48:00 PM 26.2066 -99.9534 197° South  Level FlightAware Approximate
Sun 06:49:00 PM 26.1214 -99.9818 197° South  Level FlightAware Approximate
Sun 06:50:00 PM 26.0362 -100.0102 197° South  Level FlightAware Approximate
Sun 06:51:00 PM 25.9506 -100.0365 195° South  Level FlightAware Approximate
Sun 06:52:00 PM 25.8647 -100.0623 195° South  Level FlightAware Approximate
Sun 06:53:00 PM 25.7811 -100.0952 197° South  Level FlightAware Approximate
Sun 06:54:00 PM 25.8139 -100.1630 310° West  Level FlightAware Approximate
Sun 06:55:00 PM 25.8636 -100.2449 304° West  Level FlightAware Approximate
Sun 06:56:00 PM 25.8667 -100.2500 304° West  Level FlightAware Approximate
Sun 06:57:00 PM 25.8656 -100.2372 304° West  Level Estimated
Sun 06:58:00 PM 25.8656 -100.2372 304° West  Level Estimated
Sun 06:59:00 PM 25.8656 -100.2372 304° West  Level Estimated
Sun 07:00:00 PM 25.8656 -100.2372 304° West  Level Estimated
Sun 07:01:00 PM 25.8656 -100.2372 304° West  Level Estimated
Sun 07:02:00 PM 25.8656 -100.2372 304° West  Level Estimated
Sun 07:03:00 PM 25.8656 -100.2372 304° West  Level Estimated
Sun 07:04:00 PM 25.8656 -100.2372 304° West  Level Estimated
Sun 07:05:00 PM 25.8656 -100.2372 304° West  Level Estimated
Sun 07:06:00 PM 25.8656 -100.2372 304° West  Level Estimated
Sun 07:07:00 PM 25.8656 -100.2372 304° West  Level Estimated
Sun 07:08:00 PM 25.8656 -100.2372 304° West  Level Estimated
Sun 07:09:00 PM 25.8656 -100.2372 304° West  Level Estimated
Sun 07:10:00 PM 25.8656 -100.2372 304° West  Level Estimated
Sun 07:11:00 PM 25.8656 -100.2372 304° West  Level Estimated
Sun 07:12:00 PM 25.8656 -100.2372 304° West  Level Estimated
Sun 07:13:00 PM 25.8656 -100.2372 304° West  Level Estimated
Sun 07:14:00 PM 25.8656 -100.2372 304° West  Level Estimated
Sun 07:15:00 PM 25.8656 -100.2372 304° West  Level Estimated
Sun 07:16:00 PM 25.8656 -100.2372 304° West  Level Estimated
Sun 07:17:00 PM 25.8656 -100.2372 304° West  Level Estimated
Sun 07:18:00 PM 25.8656 -100.2372 304° West  Level Estimated

Login

Don't have an account? Register now (free) for customized features, flight alerts, and more!